Lake Dalecarlia, Indiana
Current Conditions -  °F | °C
As of 1:15 PM on Sunday 21 Dec 2014 (Local Time) from KIGQ Reporting Station
Overcast Overcast  
Wind Chill: 28°   Ceiling: 3800
Heat Index: 36°   Visibility: 10mi
Dew Point: 29°   Wind: 12mph
Humidity: 75%   Direction: 170°S
Pressure: 30.14"   Gusts: NA
Location:  41.2585°N, 87.4193°W
Report Text: KIGQ 211915Z AUTO 17010KT 10SM OVC038 02/M02 A3014 RMK AO2 T00211019
Loading
Personal Weather Stations






























Interactive Weather Map New forecast layout! Learn more

10-Day Weather Forecast

Advertisements
Track Severe Weather on mobile